Time;durP1;ratioP1;P1;durP2;ratioP2;P2;SDS_P1;SDS_P2;PMS_P1;PMS_P2;Temp;Humidity;BMP_temperature;BMP_pressure;BME280_temperature;BME280_humidity;BME280_pressure;Samples;Min_cycle;Max_cycle;Signal;HPM_P1;HPM_P2
2022/03/28 00:01:18;;;;;;;24.47;15.00;;;9.00;99.90;;;;;;2612499;47;20947;-76
2022/03/28 00:03:45;;;;;;;20.47;15.07;;;9.00;99.90;;;;;;2611862;47;20422;-74
2022/03/28 00:06:10;;;;;;;18.97;14.80;;;8.80;99.90;;;;;;2612507;49;21040;-75
2022/03/28 00:08:38;;;;;;;26.33;17.30;;;8.80;99.90;;;;;;2612859;47;20409;-74
2022/03/28 00:11:06;;;;;;;28.70;16.90;;;8.70;99.90;;;;;;2613138;54;20162;-76
2022/03/28 00:13:36;;;;;;;24.47;16.57;;;8.70;99.90;;;;;;2613939;54;20532;-77
2022/03/28 00:16:03;;;;;;;22.50;15.67;;;8.60;99.90;;;;;;2612349;47;21142;-74
2022/03/28 00:18:31;;;;;;;25.10;15.40;;;8.70;99.90;;;;;;2612478;54;20410;-75
2022/03/28 00:20:57;;;;;;;26.90;15.80;;;8.70;99.90;;;;;;2612201;47;20438;-74
2022/03/28 00:23:24;;;;;;;24.13;15.77;;;8.60;99.90;;;;;;2611944;54;20499;-74
2022/03/28 00:25:50;;;;;;;23.70;15.30;;;8.60;99.90;;;;;;2610927;47;20409;-76
2022/03/28 00:28:17;;;;;;;20.03;14.93;;;8.50;99.90;;;;;;2612357;54;20403;-74
2022/03/28 00:30:44;;;;;;;23.67;14.93;;;8.40;99.90;;;;;;2613098;51;20426;-75
2022/03/28 00:33:11;;;;;;;30.33;16.23;;;8.50;99.90;;;;;;2611703;54;20398;-75
2022/03/28 00:35:36;;;;;;;24.97;15.03;;;8.50;99.90;;;;;;2612176;47;20443;-73
2022/03/28 00:38:03;;;;;;;31.00;14.60;;;8.50;99.90;;;;;;2613498;39;20841;-76
2022/03/28 00:40:31;;;;;;;23.30;16.53;;;8.40;99.90;;;;;;2613784;39;20623;-74
2022/03/28 00:43:03;;;;;;;23.17;15.27;;;8.40;99.90;;;;;;2612687;47;20414;-73
2022/03/28 00:45:31;;;;;;;27.37;14.97;;;8.40;99.90;;;;;;2612437;54;20430;-74
2022/03/28 00:47:58;;;;;;;25.23;15.53;;;8.50;99.90;;;;;;2613334;54;20413;-74
2022/03/28 00:50:28;;;;;;;23.67;16.20;;;8.50;99.90;;;;;;2611527;54;20973;-74
2022/03/28 00:52:57;;;;;;;28.40;15.40;;;8.30;99.90;;;;;;2612973;54;20406;-74
2022/03/28 00:55:24;;;;;;;25.07;15.53;;;8.30;99.90;;;;;;2611519;46;20422;-75
2022/03/28 00:57:50;;;;;;;31.37;16.40;;;8.10;99.90;;;;;;2614009;39;20773;-75
2022/03/28 01:00:17;;;;;;;23.70;15.23;;;8.10;99.90;;;;;;2612630;46;20421;-75
2022/03/28 01:02:43;;;;;;;31.00;16.17;;;8.20;99.90;;;;;;2614016;54;20414;-81
2022/03/28 01:05:10;;;;;;;22.17;14.70;;;8.10;99.90;;;;;;2614228;54;20486;-83
2022/03/28 01:07:38;;;;;;;26.73;16.07;;;8.20;99.90;;;;;;2614551;54;20414;-80
2022/03/28 01:10:05;;;;;;;21.13;15.23;;;8.10;99.90;;;;;;2613399;54;20404;-78
2022/03/28 01:12:32;;;;;;;27.87;17.23;;;8.00;99.90;;;;;;2613732;54;20491;-80
2022/03/28 01:14:59;;;;;;;23.17;15.23;;;8.00;99.90;;;;;;2615275;54;20539;-81
2022/03/28 01:20:10;;;;;;;23.97;17.53;;;8.00;99.90;;;;;;2614510;39;20770;-77
2022/03/28 01:22:36;;;;;;;24.83;16.03;;;7.90;99.90;;;;;;2615415;54;20431;-81
2022/03/28 01:25:05;;;;;;;27.80;16.30;;;7.80;99.90;;;;;;2615503;54;20433;-80
2022/03/28 01:27:33;;;;;;;28.37;16.33;;;7.80;99.90;;;;;;2615458;54;20489;-80
2022/03/28 01:29:58;;;;;;;26.33;17.63;;;7.80;99.90;;;;;;2614007;54;20422;-80
2022/03/28 01:32:25;;;;;;;18.33;14.27;;;7.80;99.90;;;;;;2614125;54;21015;-81
2022/03/28 01:34:51;;;;;;;22.50;15.03;;;7.80;99.90;;;;;;2613289;47;21027;-80
2022/03/28 01:37:17;;;;;;;26.37;15.57;;;7.80;99.90;;;;;;2614483;54;20409;-80
2022/03/28 01:39:43;;;;;;;27.33;17.40;;;7.70;99.90;;;;;;2612925;54;21070;-79
2022/03/28 01:42:08;;;;;;;22.57;15.23;;;7.70;99.90;;;;;;2613637;47;20771;-80
2022/03/28 01:44:34;;;;;;;27.43;16.30;;;7.70;99.90;;;;;;2614793;54;20436;-79
2022/03/28 01:47:00;;;;;;;23.70;16.43;;;7.70;99.90;;;;;;2613836;47;20177;-79
2022/03/28 01:49:26;;;;;;;24.70;17.00;;;7.70;99.90;;;;;;2615346;54;20432;-81
2022/03/28 01:51:52;;;;;;;26.67;16.73;;;7.70;99.90;;;;;;2614974;54;20165;-77
2022/03/28 01:54:18;;;;;;;24.03;17.00;;;7.60;99.90;;;;;;2615714;47;20714;-80
2022/03/28 01:56:44;;;;;;;28.17;15.37;;;7.70;99.90;;;;;;2613434;47;20433;-81
2022/03/28 01:59:11;;;;;;;20.00;14.37;;;7.70;99.90;;;;;;2613690;54;20984;-81
2022/03/28 02:01:37;;;;;;;26.50;14.63;;;7.70;99.90;;;;;;2614039;54;20527;-78
2022/03/28 02:04:04;;;;;;;26.50;15.70;;;7.70;99.90;;;;;;2612638;39;20892;-79
2022/03/28 02:06:33;;;;;;;26.10;15.40;;;7.70;99.90;;;;;;2613822;54;21048;-81
2022/03/28 02:08:59;;;;;;;23.33;15.00;;;7.50;99.90;;;;;;2614655;54;20974;-81
2022/03/28 02:11:25;;;;;;;23.57;16.17;;;7.60;99.90;;;;;;2611228;54;20450;-81
2022/03/28 02:13:50;;;;;;;26.87;17.13;;;7.50;99.90;;;;;;2613117;50;20189;-80
2022/03/28 02:16:16;;;;;;;23.57;17.27;;;7.50;99.90;;;;;;2613776;54;20445;-81
2022/03/28 02:18:42;;;;;;;27.30;15.70;;;7.50;99.90;;;;;;2610855;47;20774;-79
2022/03/28 02:21:08;;;;;;;26.37;16.10;;;7.40;99.90;;;;;;2612231;54;20157;-80
2022/03/28 02:23:34;;;;;;;24.30;16.27;;;7.30;99.90;;;;;;2613612;54;20185;-82
2022/03/28 02:26:00;;;;;;;25.70;15.27;;;7.40;99.90;;;;;;2613950;54;20157;-80
2022/03/28 02:28:26;;;;;;;22.80;15.10;;;7.40;99.90;;;;;;2613042;47;21109;-81
2022/03/28 02:30:53;;;;;;;27.93;16.13;;;7.40;99.90;;;;;;2613946;54;20509;-78
2022/03/28 02:33:19;;;;;;;23.73;15.43;;;7.30;99.90;;;;;;2614594;54;20305;-81
2022/03/28 02:35:46;;;;;;;27.10;16.97;;;7.30;99.90;;;;;;2614016;54;20444;-81
2022/03/28 02:38:13;;;;;;;23.50;15.70;;;7.30;99.90;;;;;;2612861;54;20429;-80
2022/03/28 02:40:38;;;;;;;25.63;16.20;;;7.30;99.90;;;;;;2614210;54;21019;-80
2022/03/28 02:43:05;;;;;;;27.60;17.50;;;7.40;99.90;;;;;;2612000;54;20388;-80
2022/03/28 02:45:32;;;;;;;31.07;18.93;;;7.40;99.90;;;;;;2614270;54;20405;-79
2022/03/28 02:48:01;;;;;;;30.73;17.17;;;7.30;99.90;;;;;;2613268;54;20460;-82
2022/03/28 02:50:28;;;;;;;35.07;19.33;;;7.30;99.90;;;;;;2613132;54;20428;-83
2022/03/28 02:52:54;;;;;;;25.17;16.90;;;7.00;99.90;;;;;;2611121;47;20416;-81
2022/03/28 02:55:20;;;;;;;27.33;18.83;;;7.10;99.90;;;;;;2614426;54;20412;-80
2022/03/28 02:57:45;;;;;;;27.93;17.80;;;7.00;99.90;;;;;;2613894;54;20263;-82
2022/03/28 03:00:11;;;;;;;26.87;18.23;;;7.00;99.90;;;;;;2612597;39;20771;-81
2022/03/28 03:02:38;;;;;;;26.27;16.33;;;7.00;99.90;;;;;;2612726;54;20252;-81
2022/03/28 03:05:06;;;;;;;27.87;17.90;;;7.00;99.90;;;;;;2611577;54;20424;-80
2022/03/28 03:07:32;;;;;;;26.63;17.50;;;7.00;99.90;;;;;;2612628;39;20934;-81
2022/03/28 03:09:58;;;;;;;28.13;17.70;;;7.00;99.90;;;;;;2613572;47;20418;-79
2022/03/28 03:12:24;;;;;;;23.40;16.33;;;6.80;99.90;;;;;;2613163;54;20446;-81
2022/03/28 03:14:51;;;;;;;31.57;18.60;;;6.80;99.90;;;;;;2613884;47;20962;-80
2022/03/28 03:17:17;;;;;;;31.43;19.83;;;6.80;99.90;;;;;;2612549;54;20411;-81
2022/03/28 03:19:44;;;;;;;26.33;16.27;;;6.80;99.90;;;;;;2612014;54;20425;-80
2022/03/28 03:22:11;;;;;;;27.80;18.37;;;6.80;99.90;;;;;;2612096;54;20396;-82
2022/03/28 03:24:37;;;;;;;25.80;17.10;;;6.80;99.90;;;;;;2613659;54;20493;-81
2022/03/28 03:27:03;;;;;;;29.43;17.57;;;6.90;99.90;;;;;;2612428;47;20422;-80
2022/03/28 03:29:29;;;;;;;31.20;19.20;;;6.80;99.90;;;;;;2614240;54;20964;-78
2022/03/28 03:31:55;;;;;;;23.23;17.33;;;6.70;99.90;;;;;;2613338;54;20428;-79
2022/03/28 03:34:21;;;;;;;28.90;18.90;;;6.70;99.90;;;;;;2612568;54;20717;-81
2022/03/28 03:36:46;;;;;;;35.13;17.80;;;6.70;99.90;;;;;;2612611;54;20216;-81
2022/03/28 03:39:12;;;;;;;27.27;18.03;;;6.70;99.90;;;;;;2610288;39;20606;-80
2022/03/28 03:41:38;;;;;;;26.67;18.10;;;6.70;99.90;;;;;;2612477;47;20207;-81
2022/03/28 03:44:06;;;;;;;25.10;17.10;;;6.80;99.90;;;;;;2610536;54;20494;-80
2022/03/28 03:46:32;;;;;;;26.40;17.47;;;6.70;99.90;;;;;;2612855;54;20576;-81
2022/03/28 03:48:58;;;;;;;31.77;17.73;;;6.70;99.90;;;;;;2612960;54;20447;-79
2022/03/28 03:51:24;;;;;;;28.67;17.23;;;6.80;99.90;;;;;;2613091;54;20413;-78
2022/03/28 03:53:50;;;;;;;29.73;16.10;;;6.70;99.90;;;;;;2612520;54;21000;-82
2022/03/28 03:56:16;;;;;;;28.93;19.20;;;6.70;99.90;;;;;;2613261;39;20553;-82
2022/03/28 03:58:42;;;;;;;33.87;20.37;;;6.70;99.90;;;;;;2612668;54;20692;-79
2022/03/28 04:01:08;;;;;;;28.70;19.57;;;6.80;99.90;;;;;;2611863;39;20848;-81
2022/03/28 04:03:35;;;;;;;28.33;18.67;;;6.60;99.90;;;;;;2612432;47;20905;-80
2022/03/28 04:06:01;;;;;;;38.77;21.20;;;6.50;99.90;;;;;;2611218;54;20517;-81
2022/03/28 04:08:28;;;;;;;26.43;19.23;;;6.40;99.90;;;;;;2612453;54;20444;-80
2022/03/28 04:10:54;;;;;;;29.73;19.07;;;6.40;99.90;;;;;;2611946;54;20439;-81
2022/03/28 04:13:21;;;;;;;31.03;18.83;;;6.40;99.90;;;;;;2611378;47;20443;-80
2022/03/28 04:15:46;;;;;;;30.80;19.60;;;6.40;99.90;;;;;;2610619;54;20379;-80
2022/03/28 04:18:12;;;;;;;39.43;20.50;;;6.50;99.90;;;;;;2612981;39;20952;-81
2022/03/28 04:20:38;;;;;;;31.30;18.90;;;6.50;99.90;;;;;;2613123;54;20151;-79
2022/03/28 04:23:04;;;;;;;29.80;18.20;;;6.60;99.90;;;;;;2612819;54;20418;-81
2022/03/28 04:25:30;;;;;;;29.30;19.30;;;6.60;99.90;;;;;;2612568;54;20153;-82
2022/03/28 04:27:55;;;;;;;33.53;20.33;;;6.40;99.90;;;;;;2611076;54;20157;-80
2022/03/28 04:30:23;;;;;;;29.10;18.87;;;6.40;99.90;;;;;;2612814;54;20232;-77
2022/03/28 04:32:48;;;;;;;27.63;19.27;;;6.30;99.90;;;;;;2612007;47;22278;-78
2022/03/28 04:35:15;;;;;;;29.50;19.80;;;6.40;99.90;;;;;;2613123;54;20516;-81
2022/03/28 04:37:42;;;;;;;31.70;19.13;;;6.50;99.90;;;;;;2612728;54;20274;-79
2022/03/28 04:40:11;;;;;;;28.30;18.60;;;6.50;99.90;;;;;;2611558;54;20492;-80
2022/03/28 04:42:38;;;;;;;36.10;20.63;;;6.50;99.90;;;;;;2613328;54;20469;-81
2022/03/28 04:45:05;;;;;;;31.77;21.07;;;6.50;99.90;;;;;;2613433;54;20427;-80
2022/03/28 04:47:31;;;;;;;32.00;21.33;;;6.40;99.90;;;;;;2613525;39;20827;-80
2022/03/28 04:49:58;;;;;;;27.70;19.60;;;6.40;99.90;;;;;;2611214;39;20797;-80
2022/03/28 04:52:24;;;;;;;35.83;20.43;;;6.40;99.90;;;;;;2611098;46;20416;-78
2022/03/28 04:54:50;;;;;;;30.80;20.00;;;6.50;99.90;;;;;;2611689;54;20480;-80
2022/03/28 04:57:16;;;;;;;30.70;18.60;;;6.50;99.90;;;;;;2612549;39;20957;-80
2022/03/28 04:59:41;;;;;;;34.37;18.33;;;6.30;99.90;;;;;;2612764;54;20157;-83
2022/03/28 05:02:08;;;;;;;31.30;20.37;;;6.20;99.90;;;;;;2611212;54;20160;-79
2022/03/28 05:04:35;;;;;;;36.80;20.63;;;6.20;99.90;;;;;;2611184;39;20545;-80
2022/03/28 05:07:00;;;;;;;30.80;19.20;;;6.20;99.90;;;;;;2612680;47;20412;-81
2022/03/28 05:09:26;;;;;;;33.73;19.40;;;6.10;99.90;;;;;;2612588;54;20394;-82
2022/03/28 05:11:52;;;;;;;29.13;18.60;;;6.10;99.90;;;;;;2612053;39;20763;-78
2022/03/28 05:14:19;;;;;;;35.60;19.80;;;6.10;99.90;;;;;;2612555;47;20323;-81
2022/03/28 05:16:45;;;;;;;37.37;21.67;;;6.10;99.90;;;;;;2611395;47;20171;-83
2022/03/28 05:19:11;;;;;;;33.80;21.93;;;6.10;99.90;;;;;;2612900;54;20401;-80
2022/03/28 05:21:36;;;;;;;33.93;19.67;;;6.10;99.90;;;;;;2609077;54;20966;-78
2022/03/28 05:24:02;;;;;;;42.53;22.33;;;6.10;99.90;;;;;;2607909;54;20152;-78
2022/03/28 05:26:28;;;;;;;39.87;22.20;;;6.20;99.90;;;;;;2610868;54;20156;-78
2022/03/28 05:28:54;;;;;;;31.90;21.13;;;6.20;99.90;;;;;;2609831;39;20822;-78
2022/03/28 05:31:21;;;;;;;31.83;20.70;;;6.20;99.90;;;;;;2662586;36;20600;-77
2022/03/28 05:33:46;;;;;;;33.10;19.83;;;6.20;99.90;;;;;;2609609;54;20247;-77
2022/03/28 05:36:13;;;;;;;29.73;19.57;;;6.20;99.90;;;;;;2606556;47;20428;-79
2022/03/28 05:38:40;;;;;;;36.93;21.63;;;6.30;99.90;;;;;;2611710;54;20152;-77
2022/03/28 05:41:07;;;;;;;33.77;21.63;;;6.10;99.90;;;;;;2607310;54;20424;-77
2022/03/28 05:43:37;;;;;;;32.50;20.80;;;6.00;99.90;;;;;;2609055;54;20523;-78
2022/03/28 05:46:03;;;;;;;30.87;20.00;;;6.30;99.90;;;;;;2606158;46;20541;-78
2022/03/28 05:48:30;;;;;;;33.43;21.80;;;6.40;99.90;;;;;;2607670;54;20389;-76
2022/03/28 05:50:56;;;;;;;31.23;21.83;;;6.50;99.90;;;;;;2605825;48;20449;-81
2022/03/28 05:53:22;;;;;;;34.13;20.10;;;6.70;99.90;;;;;;2613352;47;21055;-78
2022/03/28 05:55:48;;;;;;;31.53;20.10;;;6.60;99.90;;;;;;2614417;39;20758;-81
2022/03/28 05:58:15;;;;;;;32.37;20.17;;;6.70;99.90;;;;;;2612067;54;21474;-82
2022/03/28 06:00:41;;;;;;;32.33;20.80;;;6.70;99.90;;;;;;2613306;54;21094;-83
2022/03/28 06:03:08;;;;;;;39.23;20.70;;;6.80;99.90;;;;;;2610867;54;20401;-78
2022/03/28 06:05:36;;;;;;;33.83;20.67;;;6.70;99.90;;;;;;2611323;54;20403;-79
2022/03/28 06:08:04;;;;;;;39.50;22.30;;;6.90;99.90;;;;;;2612476;54;20422;-79
2022/03/28 06:10:30;;;;;;;34.07;21.17;;;7.10;99.90;;;;;;2611692;48;20468;-81
2022/03/28 06:12:56;;;;;;;42.73;22.90;;;7.20;99.90;;;;;;2613074;54;20573;-79
2022/03/28 06:15:22;;;;;;;32.23;20.60;;;7.40;99.90;;;;;;2612942;39;20564;-79
2022/03/28 06:17:48;;;;;;;25.03;17.33;;;7.50;99.90;;;;;;2612510;47;20413;-80
2022/03/28 06:20:14;;;;;;;28.47;17.70;;;7.40;99.90;;;;;;2611184;54;20427;-79
2022/03/28 06:22:40;;;;;;;28.20;14.73;;;7.40;99.90;;;;;;2611239;54;20530;-81
2022/03/28 06:25:08;;;;;;;35.53;16.83;;;7.40;99.90;;;;;;2613171;54;20448;-79
2022/03/28 06:27:40;;;;;;;28.53;17.93;;;7.30;99.90;;;;;;2613292;54;20410;-80
2022/03/28 06:30:08;;;;;;;27.53;17.73;;;7.60;99.90;;;;;;2612325;54;20419;-83
2022/03/28 06:32:34;;;;;;;26.23;17.73;;;8.00;99.90;;;;;;2611824;54;20414;-82
2022/03/28 06:35:00;;;;;;;34.33;18.80;;;8.20;99.90;;;;;;2612191;54;20454;-81
2022/03/28 06:37:27;;;;;;;28.10;17.27;;;8.90;99.90;;;;;;2610770;54;20134;-80
2022/03/28 06:39:52;;;;;;;22.53;15.60;;;9.60;99.90;;;;;;2611273;54;20218;-78
2022/03/28 06:42:18;;;;;;;26.37;18.77;;;10.10;99.90;;;;;;2609377;54;20419;-80
2022/03/28 06:44:44;;;;;;;27.10;16.43;;;10.50;99.90;;;;;;2610656;54;20143;-78
2022/03/28 06:47:11;;;;;;;28.67;16.23;;;10.80;99.90;;;;;;2611396;54;20146;-79
2022/03/28 06:49:36;;;;;;;23.47;17.00;;;10.50;99.90;;;;;;2612075;39;20773;-76
2022/03/28 06:52:03;;;;;;;22.00;15.33;;;10.20;99.90;;;;;;2610668;54;20390;-77
2022/03/28 06:54:29;;;;;;;18.00;14.77;;;10.30;99.90;;;;;;2611791;54;20159;-79
2022/03/28 06:56:55;;;;;;;22.10;17.03;;;10.80;99.90;;;;;;2610732;54;20515;-78
2022/03/28 06:59:23;;;;;;;28.50;16.93;;;11.10;99.90;;;;;;2610574;39;20836;-75
2022/03/28 07:01:50;;;;;;;24.50;17.60;;;11.40;99.90;;;;;;2608594;54;20428;-79
2022/03/28 07:04:15;;;;;;;27.57;19.70;;;11.50;99.90;;;;;;2609248;54;20425;-79
2022/03/28 07:06:41;;;;;;;30.17;18.97;;;12.00;99.90;;;;;;2611392;54;20414;-75
2022/03/28 07:09:07;;;;;;;22.13;17.03;;;12.30;97.50;;;;;;2611551;54;20178;-77
2022/03/28 07:11:33;;;;;;;29.73;18.80;;;13.00;90.20;;;;;;2610308;46;20178;-80
2022/03/28 07:13:59;;;;;;;22.00;17.70;;;13.10;88.90;;;;;;2610224;47;20690;-76
2022/03/28 07:16:25;;;;;;;20.20;16.97;;;13.10;86.70;;;;;;2609622;54;20242;-77
2022/03/28 07:18:51;;;;;;;24.13;16.57;;;13.60;82.70;;;;;;2610649;39;20816;-79
2022/03/28 07:21:17;;;;;;;25.27;18.43;;;14.10;72.40;;;;;;2608933;54;20523;-77
2022/03/28 07:23:43;;;;;;;20.87;16.13;;;14.30;70.00;;;;;;2610301;54;20424;-79
2022/03/28 07:26:09;;;;;;;23.83;17.60;;;14.60;62.20;;;;;;2606265;47;20825;-78
2022/03/28 07:28:39;;;;;;;25.80;19.53;;;14.50;61.80;;;;;;2610018;46;20451;-78
2022/03/28 07:31:08;;;;;;;25.70;19.43;;;14.90;57.70;;;;;;2609164;54;20475;-79
2022/03/28 07:33:44;;;;;;;26.83;19.43;;;15.20;54.90;;;;;;2611012;54;20984;-78
2022/03/28 07:36:10;;;;;;;23.13;18.23;;;15.50;51.80;;;;;;2608313;47;20451;-77
2022/03/28 07:38:37;;;;;;;23.07;19.00;;;15.90;48.00;;;;;;2610460;54;22248;-79
2022/03/28 07:41:04;;;;;;;36.80;21.57;;;16.20;46.50;;;;;;2607313;54;20548;-80
2022/03/28 07:43:31;;;;;;;27.00;18.73;;;16.00;46.00;;;;;;2608842;39;20567;-79
2022/03/28 07:45:57;;;;;;;26.37;18.13;;;16.20;44.90;;;;;;2609183;46;20439;-79
2022/03/28 07:48:24;;;;;;;34.77;20.63;;;16.40;44.30;;;;;;2610542;39;20865;-77
2022/03/28 07:50:50;;;;;;;31.70;22.67;;;16.30;44.00;;;;;;2609185;54;20151;-78
2022/03/28 07:53:17;;;;;;;30.10;21.47;;;16.30;43.00;;;;;;2606719;54;21011;-77
2022/03/28 07:55:43;;;;;;;30.97;21.00;;;16.30;43.00;;;;;;2610180;47;20429;-79
2022/03/28 07:58:10;;;;;;;28.60;19.90;;;16.50;42.80;;;;;;2610340;39;21115;-78
2022/03/28 08:00:40;;;;;;;28.60;21.43;;;16.90;38.80;;;;;;2610485;54;20441;-77
2022/03/28 08:03:06;;;;;;;24.10;19.20;;;17.00;37.90;;;;;;2611199;54;20414;-77
2022/03/28 08:05:32;;;;;;;24.10;19.83;;;17.10;36.60;;;;;;2608522;54;20410;-78
2022/03/28 08:07:58;;;;;;;25.30;20.63;;;17.40;33.70;;;;;;2609954;54;20424;-78
2022/03/28 08:10:25;;;;;;;27.33;21.90;;;17.10;36.20;;;;;;2610308;54;22051;-78
2022/03/28 08:12:51;;;;;;;25.90;21.13;;;17.40;35.20;;;;;;2610134;47;20458;-78
2022/03/28 08:15:19;;;;;;;22.67;18.93;;;17.50;34.00;;;;;;2609721;54;20415;-78
2022/03/28 08:17:44;;;;;;;26.83;20.70;;;18.10;31.40;;;;;;2610082;54;20427;-78
2022/03/28 08:20:12;;;;;;;26.50;21.40;;;18.10;28.90;;;;;;2609584;54;20444;-78
2022/03/28 08:22:39;;;;;;;28.30;21.20;;;17.90;29.30;;;;;;2611663;54;20476;-78
2022/03/28 08:25:07;;;;;;;24.40;20.90;;;18.30;29.50;;;;;;2609529;54;20441;-78
2022/03/28 08:27:34;;;;;;;27.97;22.53;;;18.30;28.00;;;;;;2610379;54;20420;-78
2022/03/28 08:29:59;;;;;;;36.00;21.43;;;18.60;25.50;;;;;;2608329;54;20459;-78
2022/03/28 08:32:25;;;;;;;33.40;23.83;;;18.40;26.00;;;;;;2610917;54;20418;-76
2022/03/28 08:34:51;;;;;;;31.10;22.60;;;18.60;26.10;;;;;;2611119;47;20796;-78
2022/03/28 08:37:18;;;;;;;28.90;23.63;;;18.90;24.80;;;;;;2611137;39;20932;-78
2022/03/28 08:39:49;;;;;;;31.20;24.30;;;19.00;22.10;;;;;;2610020;46;20170;-78
2022/03/28 08:42:16;;;;;;;28.50;22.70;;;19.10;20.30;;;;;;2608774;54;20442;-77
2022/03/28 08:44:42;;;;;;;29.10;22.07;;;18.60;23.70;;;;;;2610203;39;21039;-78
2022/03/28 08:47:12;;;;;;;27.57;22.63;;;18.50;23.40;;;;;;2609024;54;20534;-79
2022/03/28 08:49:38;;;;;;;221.40;89.97;;;18.80;21.90;;;;;;2610649;54;20514;-77
2022/03/28 08:52:07;;;;;;;25.70;23.03;;;18.90;24.00;;;;;;2608413;51;20414;-77
2022/03/28 08:54:34;;;;;;;27.57;23.63;;;19.60;18.80;;;;;;2610945;54;20158;-78
2022/03/28 08:57:00;;;;;;;28.90;24.97;;;19.40;18.10;;;;;;2607962;47;20883;-77
2022/03/28 08:59:26;;;;;;;29.10;24.97;;;19.80;15.50;;;;;;2610965;54;20431;-78
2022/03/28 09:01:52;;;;;;;27.73;24.17;;;20.10;14.30;;;;;;2607352;54;20507;-77
2022/03/28 09:04:18;;;;;;;27.97;23.10;;;20.40;10.70;;;;;;2610860;54;20453;-76
2022/03/28 09:06:45;;;;;;;28.40;24.47;;;20.30;10.60;;;;;;2608217;47;20169;-75
2022/03/28 09:09:19;;;;;;;28.60;24.13;;;20.00;10.30;;;;;;2610280;39;20852;-78
2022/03/28 09:11:53;;;;;;;33.57;25.33;;;19.50;13.40;;;;;;2609383;54;20506;-77
2022/03/28 09:14:33;;;;;;;28.67;25.20;;;19.60;13.70;;;;;;2611021;54;20461;-77
2022/03/28 09:17:16;;;;;;;34.70;25.43;;;20.20;11.80;;;;;;2610149;54;20415;-77
2022/03/28 09:19:46;;;;;;;29.87;25.40;;;20.60;9.60;;;;;;2608878;54;21300;-78
2022/03/28 09:22:13;;;;;;;29.20;25.90;;;20.40;9.10;;;;;;2608747;51;20427;-77
2022/03/28 09:24:39;;;;;;;28.10;25.23;;;20.60;9.70;;;;;;2610528;39;20916;-77
2022/03/28 09:27:12;;;;;;;26.40;23.60;;;20.70;7.10;;;;;;2611004;54;21663;-77
2022/03/28 09:30:07;;;;;;;28.57;25.60;;;20.50;8.10;;;;;;2609813;54;21017;-78
2022/03/28 09:32:37;;;;;;;30.87;27.57;;;20.60;7.30;;;;;;2611040;39;20868;-77
2022/03/28 09:35:09;;;;;;;30.03;26.80;;;20.80;6.90;;;;;;2610349;51;20507;-78
2022/03/28 09:37:58;;;;;;;29.17;26.07;;;21.00;6.40;;;;;;2610747;54;20423;-78
2022/03/28 09:40:49;;;;;;;32.20;25.93;;;21.20;6.00;;;;;;2611130;54;20541;-76
2022/03/28 09:43:30;;;;;;;29.53;25.63;;;21.10;4.40;;;;;;2612302;54;20415;-77
2022/03/28 09:45:58;;;;;;;32.20;28.70;;;21.20;4.40;;;;;;2612189;54;20435;-77
2022/03/28 09:48:27;;;;;;;34.43;28.00;;;20.70;5.30;;;;;;2611243;39;20951;-80
2022/03/28 09:51:03;;;;;;;36.50;29.67;;;20.70;5.50;;;;;;2612524;54;20494;-77
2022/03/28 09:53:36;;;;;;;33.63;27.30;;;21.00;4.80;;;;;;2611039;46;20430;-79
2022/03/28 09:56:10;;;;;;;32.27;26.33;;;20.80;4.20;;;;;;2610607;54;20438;-79
2022/03/28 09:58:49;;;;;;;32.40;25.13;;;20.70;5.30;;;;;;2611004;47;20453;-79
2022/03/28 10:01:20;;;;;;;31.33;25.93;;;21.30;3.70;;;;;;2610995;54;20421;-77
2022/03/28 10:03:52;;;;;;;30.33;27.13;;;21.50;2.40;;;;;;2611251;54;20427;-78
2022/03/28 10:06:18;;;;;;;29.33;26.53;;;21.70;1.40;;;;;;2611363;47;20470;-79
2022/03/28 10:08:45;;;;;;;33.80;27.47;;;21.50;2.30;;;;;;2611852;54;20963;-78
2022/03/28 10:11:12;;;;;;;31.73;28.20;;;21.90;1.00;;;;;;2610107;39;20685;-78
2022/03/28 10:13:38;;;;;;;30.07;26.30;;;21.10;1.60;;;;;;2611033;54;20535;-78
2022/03/28 10:16:05;;;;;;;34.83;27.17;;;20.60;4.10;;;;;;2611036;39;21487;-77
2022/03/28 10:18:34;;;;;;;29.00;26.00;;;20.90;2.70;;;;;;2674597;31;21033;-79
2022/03/28 10:21:17;;;;;;;35.93;27.03;;;21.10;3.80;;;;;;2610216;54;20426;-79
2022/03/28 10:24:03;;;;;;;30.37;27.17;;;21.60;2.90;;;;;;2611068;47;20422;-79
2022/03/28 10:26:42;;;;;;;33.10;27.70;;;21.80;2.40;;;;;;2611720;54;20426;-76
2022/03/28 10:29:22;;;;;;;30.50;27.33;;;21.80;1.10;;;;;;2612270;54;20423;-77
2022/03/28 10:31:59;;;;;;;29.90;26.60;;;21.90;1.00;;;;;;2610033;47;20404;-78
2022/03/28 10:34:47;;;;;;;30.10;26.70;;;22.30;1.00;;;;;;2611862;39;20995;-77
2022/03/28 10:37:33;;;;;;;32.07;28.20;;;22.30;1.00;;;;;;2612293;54;20439;-77
2022/03/28 10:40:18;;;;;;;34.43;27.00;;;22.10;1.00;;;;;;2609494;54;20512;-77
2022/03/28 10:43:13;;;;;;;33.70;28.00;;;22.40;1.00;;;;;;2611262;47;20435;-78
2022/03/28 10:45:54;;;;;;;30.87;27.60;;;22.70;1.00;;;;;;2612341;54;20435;-76
2022/03/28 10:48:40;;;;;;;32.90;28.63;;;22.80;1.00;;;;;;2610382;47;20526;-79
2022/03/28 10:51:24;;;;;;;37.60;28.97;;;22.80;1.00;;;;;;2610552;54;20404;-77
2022/03/28 10:53:56;;;;;;;36.00;29.00;;;22.80;1.00;;;;;;2610243;54;20450;-78
2022/03/28 10:56:33;;;;;;;32.73;28.93;;;22.30;1.00;;;;;;2611323;46;20446;-77
2022/03/28 10:59:17;;;;;;;32.93;29.23;;;22.50;1.00;;;;;;2610663;54;20423;-77
2022/03/28 11:01:46;;;;;;;38.27;31.10;;;23.00;1.00;;;;;;2610098;54;20519;-77
2022/03/28 11:04:24;;;;;;;35.03;30.63;;;23.30;1.00;;;;;;2610927;54;20422;-78
2022/03/28 11:07:00;;;;;;;37.50;29.97;;;23.20;1.00;;;;;;2611044;54;20425;-78
2022/03/28 11:09:41;;;;;;;33.30;29.77;;;23.20;1.00;;;;;;2610934;54;21003;-78
2022/03/28 11:12:37;;;;;;;34.77;30.63;;;23.30;1.00;;;;;;2610962;54;20422;-77
2022/03/28 11:15:15;;;;;;;34.33;29.80;;;23.20;1.00;;;;;;2609137;54;21027;-78
2022/03/28 11:18:04;;;;;;;32.03;28.30;;;23.30;1.00;;;;;;2611493;54;20482;-78
2022/03/28 11:20:52;;;;;;;32.63;29.00;;;22.70;1.00;;;;;;2609720;47;20437;-76
2022/03/28 11:23:18;;;;;;;36.00;30.73;;;22.90;1.00;;;;;;2610815;46;20457;-78
2022/03/28 11:25:53;;;;;;;36.67;30.20;;;22.90;1.00;;;;;;2610242;54;20427;-79
2022/03/28 11:28:21;;;;;;;33.70;29.80;;;22.90;1.00;;;;;;2628977;36;20554;-76
2022/03/28 11:31:07;;;;;;;33.60;29.10;;;22.90;1.00;;;;;;2608768;54;20408;-78
2022/03/28 11:33:42;;;;;;;31.77;28.60;;;22.80;1.00;;;;;;2609827;54;20447;-78
2022/03/28 11:36:20;;;;;;;35.90;31.03;;;22.70;1.00;;;;;;2611271;54;20514;-80
2022/03/28 11:38:54;;;;;;;34.83;28.23;;;22.90;1.00;;;;;;2608737;54;20422;-77
2022/03/28 11:41:22;;;;;;;31.80;27.30;;;22.80;1.00;;;;;;2610627;54;20414;-77
2022/03/28 11:43:53;;;;;;;36.23;27.63;;;22.70;1.00;;;;;;2629089;36;20955;-77
2022/03/28 11:46:24;;;;;;;33.87;30.10;;;23.00;1.00;;;;;;2610055;54;20400;-78
2022/03/28 11:48:55;;;;;;;32.00;28.60;;;22.90;1.00;;;;;;2610558;54;20418;-78
2022/03/28 11:51:23;;;;;;;30.13;26.80;;;22.60;1.00;;;;;;2610084;54;20399;-79
2022/03/28 11:53:49;;;;;;;33.97;28.83;;;22.40;1.00;;;;;;2609958;54;20470;-76
2022/03/28 11:56:27;;;;;;;28.37;25.67;;;23.20;1.00;;;;;;2609298;47;20423;-77
2022/03/28 11:59:03;;;;;;;34.03;30.40;;;23.30;1.00;;;;;;2611499;39;20893;-75
2022/03/28 12:01:30;;;;;;;29.87;26.90;;;24.00;1.00;;;;;;2609388;54;20453;-77
2022/03/28 12:03:56;;;;;;;31.83;27.47;;;23.40;1.00;;;;;;2609542;39;20808;-77
2022/03/28 12:06:29;;;;;;;31.50;26.80;;;23.40;1.00;;;;;;2609019;47;20434;-79
2022/03/28 12:08:56;;;;;;;32.90;28.10;;;23.20;1.00;;;;;;2610150;54;20182;-78
2022/03/28 12:11:23;;;;;;;34.10;28.87;;;22.80;1.00;;;;;;2611465;39;20835;-77
2022/03/28 12:13:49;;;;;;;31.07;27.77;;;22.90;1.00;;;;;;2609903;54;20490;-79
2022/03/28 12:16:15;;;;;;;35.30;29.53;;;22.70;1.00;;;;;;2611055;46;20419;-77
2022/03/28 12:18:42;;;;;;;35.73;31.87;;;23.30;1.00;;;;;;2609073;50;20439;-76
2022/03/28 12:21:08;;;;;;;34.23;29.27;;;23.50;1.00;;;;;;2610694;39;20532;-77
2022/03/28 12:23:36;;;;;;;33.03;28.27;;;23.60;1.00;;;;;;2609723;54;20405;-76
2022/03/28 12:26:03;;;;;;;29.93;26.97;;;23.40;1.00;;;;;;2609083;47;20446;-77
2022/03/28 12:28:34;;;;;;;29.93;26.77;;;23.20;1.00;;;;;;2608541;47;20555;-78
2022/03/28 12:31:02;;;;;;;31.70;28.40;;;23.50;1.00;;;;;;2609200;54;20959;-77
2022/03/28 12:33:38;;;;;;;32.97;29.43;;;24.00;1.00;;;;;;2610277;47;20427;-78
2022/03/28 12:36:07;;;;;;;30.63;27.13;;;23.50;1.00;;;;;;2608775;47;20936;-77
2022/03/28 12:38:38;;;;;;;41.17;30.23;;;23.40;1.00;;;;;;2609975;47;20994;-78
2022/03/28 12:41:08;;;;;;;35.47;29.67;;;23.10;1.00;;;;;;2610133;54;20509;-77
2022/03/28 12:43:35;;;;;;;34.40;28.10;;;23.20;1.00;;;;;;2609968;54;20423;-77
2022/03/28 12:46:06;;;;;;;34.37;29.50;;;22.90;1.00;;;;;;2610210;54;20415;-78